sensor_id;sensor_type;location;lat;lon;timestamp;temperature;humidity
15630;DHT22;7914;50.842;0.166;2022-11-20T00:00:51;4.10;99.90
15630;DHT22;7914;50.842;0.166;2022-11-20T00:03:17;4.60;99.90
15630;DHT22;7914;50.842;0.166;2022-11-20T00:05:43;4.10;99.90
15630;DHT22;7914;50.842;0.166;2022-11-20T00:08:09;4.90;99.90
15630;DHT22;7914;50.842;0.166;2022-11-20T00:10:41;5.20;99.90
15630;DHT22;7914;50.842;0.166;2022-11-20T00:13:07;4.20;99.90
15630;DHT22;7914;50.842;0.166;2022-11-20T00:15:33;4.50;99.90
15630;DHT22;7914;50.842;0.166;2022-11-20T00:17:59;4.20;99.90
15630;DHT22;7914;50.842;0.166;2022-11-20T00:20:25;4.10;99.90
15630;DHT22;7914;50.842;0.166;2022-11-20T00:22:51;4.10;99.90
15630;DHT22;7914;50.842;0.166;2022-11-20T00:25:17;4.30;99.90
15630;DHT22;7914;50.842;0.166;2022-11-20T00:27:43;4.20;99.90
15630;DHT22;7914;50.842;0.166;2022-11-20T00:30:08;4.20;99.90
15630;DHT22;7914;50.842;0.166;2022-11-20T00:32:34;4.30;99.90
15630;DHT22;7914;50.842;0.166;2022-11-20T00:35:00;4.70;99.90
15630;DHT22;7914;50.842;0.166;2022-11-20T00:37:26;4.30;99.90
15630;DHT22;7914;50.842;0.166;2022-11-20T00:39:51;4.30;99.90
15630;DHT22;7914;50.842;0.166;2022-11-20T00:42:17;5.20;99.90
15630;DHT22;7914;50.842;0.166;2022-11-20T00:44:43;4.40;99.90
15630;DHT22;7914;50.842;0.166;2022-11-20T00:47:08;4.50;99.90
15630;DHT22;7914;50.842;0.166;2022-11-20T00:49:34;4.60;99.90
15630;DHT22;7914;50.842;0.166;2022-11-20T00:52:00;4.50;99.90
15630;DHT22;7914;50.842;0.166;2022-11-20T00:54:26;5.00;99.90
15630;DHT22;7914;50.842;0.166;2022-11-20T00:56:54;4.60;99.90
15630;DHT22;7914;50.842;0.166;2022-11-20T00:59:20;4.60;99.90
15630;DHT22;7914;50.842;0.166;2022-11-20T01:01:46;4.70;99.90
15630;DHT22;7914;50.842;0.166;2022-11-20T01:04:12;4.80;99.90
15630;DHT22;7914;50.842;0.166;2022-11-20T01:06:39;4.80;99.90
15630;DHT22;7914;50.842;0.166;2022-11-20T01:09:14;5.20;99.90
15630;DHT22;7914;50.842;0.166;2022-11-20T01:11:42;4.80;99.90
15630;DHT22;7914;50.842;0.166;2022-11-20T01:14:14;4.90;99.90
15630;DHT22;7914;50.842;0.166;2022-11-20T01:16:43;5.00;99.90
15630;DHT22;7914;50.842;0.166;2022-11-20T01:19:12;4.90;99.90
15630;DHT22;7914;50.842;0.166;2022-11-20T01:21:41;4.90;99.90
15630;DHT22;7914;50.842;0.166;2022-11-20T01:24:08;4.90;99.90
15630;DHT22;7914;50.842;0.166;2022-11-20T01:26:37;5.30;99.90
15630;DHT22;7914;50.842;0.166;2022-11-20T01:29:04;4.80;99.90
15630;DHT22;7914;50.842;0.166;2022-11-20T01:31:35;4.80;99.90
15630;DHT22;7914;50.842;0.166;2022-11-20T01:34:04;4.80;99.90
15630;DHT22;7914;50.842;0.166;2022-11-20T01:36:31;4.80;99.90
15630;DHT22;7914;50.842;0.166;2022-11-20T01:39:00;4.80;99.90
15630;DHT22;7914;50.842;0.166;2022-11-20T01:41:28;4.90;99.90
15630;DHT22;7914;50.842;0.166;2022-11-20T01:44:14;5.00;99.90
15630;DHT22;7914;50.842;0.166;2022-11-20T01:46:53;4.90;99.90
15630;DHT22;7914;50.842;0.166;2022-11-20T01:49:34;4.90;99.90
15630;DHT22;7914;50.842;0.166;2022-11-20T01:52:16;4.90;99.90
15630;DHT22;7914;50.842;0.166;2022-11-20T01:54:52;4.90;99.90
15630;DHT22;7914;50.842;0.166;2022-11-20T01:57:20;5.20;99.90
15630;DHT22;7914;50.842;0.166;2022-11-20T01:59:55;5.00;99.90
15630;DHT22;7914;50.842;0.166;2022-11-20T02:02:22;5.00;99.90
15630;DHT22;7914;50.842;0.166;2022-11-20T02:04:49;5.10;99.90
15630;DHT22;7914;50.842;0.166;2022-11-20T02:07:17;5.10;99.90
15630;DHT22;7914;50.842;0.166;2022-11-20T02:09:44;5.00;99.90
15630;DHT22;7914;50.842;0.166;2022-11-20T02:12:10;5.20;99.90
15630;DHT22;7914;50.842;0.166;2022-11-20T02:14:56;7.40;99.90
15630;DHT22;7914;50.842;0.166;2022-11-20T02:17:23;5.30;99.90
15630;DHT22;7914;50.842;0.166;2022-11-20T02:19:49;5.40;99.90
15630;DHT22;7914;50.842;0.166;2022-11-20T02:22:28;5.40;99.90
15630;DHT22;7914;50.842;0.166;2022-11-20T02:24:57;5.40;99.90
15630;DHT22;7914;50.842;0.166;2022-11-20T02:27:25;5.50;99.90
15630;DHT22;7914;50.842;0.166;2022-11-20T02:29:53;5.70;99.90
15630;DHT22;7914;50.842;0.166;2022-11-20T02:34:51;5.50;99.90
15630;DHT22;7914;50.842;0.166;2022-11-20T02:37:18;5.50;99.90
15630;DHT22;7914;50.842;0.166;2022-11-20T02:39:46;6.60;99.90
15630;DHT22;7914;50.842;0.166;2022-11-20T02:42:12;7.20;99.90
15630;DHT22;7914;50.842;0.166;2022-11-20T02:44:38;5.60;99.90
15630;DHT22;7914;50.842;0.166;2022-11-20T02:47:04;6.60;99.90
15630;DHT22;7914;50.842;0.166;2022-11-20T02:49:30;6.00;99.90
15630;DHT22;7914;50.842;0.166;2022-11-20T02:51:55;5.70;99.90
15630;DHT22;7914;50.842;0.166;2022-11-20T02:54:21;5.70;99.90
15630;DHT22;7914;50.842;0.166;2022-11-20T02:56:47;5.70;99.90
15630;DHT22;7914;50.842;0.166;2022-11-20T02:59:12;5.80;99.90
15630;DHT22;7914;50.842;0.166;2022-11-20T03:01:38;5.80;99.90
15630;DHT22;7914;50.842;0.166;2022-11-20T03:04:04;5.80;99.90
15630;DHT22;7914;50.842;0.166;2022-11-20T03:06:30;5.90;99.90
15630;DHT22;7914;50.842;0.166;2022-11-20T03:08:55;5.90;99.90
15630;DHT22;7914;50.842;0.166;2022-11-20T03:11:21;6.00;99.90
15630;DHT22;7914;50.842;0.166;2022-11-20T03:13:47;5.90;99.90
15630;DHT22;7914;50.842;0.166;2022-11-20T03:16:15;6.00;99.90
15630;DHT22;7914;50.842;0.166;2022-11-20T03:18:42;6.00;99.90
15630;DHT22;7914;50.842;0.166;2022-11-20T03:21:09;6.10;99.90
15630;DHT22;7914;50.842;0.166;2022-11-20T03:23:36;6.10;99.90
15630;DHT22;7914;50.842;0.166;2022-11-20T03:26:19;6.20;99.90
15630;DHT22;7914;50.842;0.166;2022-11-20T03:28:50;6.20;99.90
15630;DHT22;7914;50.842;0.166;2022-11-20T03:31:19;6.30;99.90
15630;DHT22;7914;50.842;0.166;2022-11-20T03:33:45;6.40;99.90
15630;DHT22;7914;50.842;0.166;2022-11-20T03:36:13;6.40;99.90
15630;DHT22;7914;50.842;0.166;2022-11-20T03:38:39;6.50;99.90
15630;DHT22;7914;50.842;0.166;2022-11-20T03:41:12;6.50;99.90
15630;DHT22;7914;50.842;0.166;2022-11-20T03:43:38;6.50;99.90
15630;DHT22;7914;50.842;0.166;2022-11-20T03:46:05;6.60;99.90
15630;DHT22;7914;50.842;0.166;2022-11-20T03:48:30;6.60;99.90
15630;DHT22;7914;50.842;0.166;2022-11-20T03:51:11;6.60;99.90
15630;DHT22;7914;50.842;0.166;2022-11-20T03:53:38;6.70;99.90
15630;DHT22;7914;50.842;0.166;2022-11-20T03:56:04;6.90;99.90
15630;DHT22;7914;50.842;0.166;2022-11-20T03:58:30;6.70;99.90
15630;DHT22;7914;50.842;0.166;2022-11-20T04:00:55;6.80;99.90
15630;DHT22;7914;50.842;0.166;2022-11-20T04:03:21;6.90;99.90
15630;DHT22;7914;50.842;0.166;2022-11-20T04:05:47;7.20;99.90
15630;DHT22;7914;50.842;0.166;2022-11-20T04:08:12;7.30;99.90
15630;DHT22;7914;50.842;0.166;2022-11-20T04:10:38;7.50;99.90
15630;DHT22;7914;50.842;0.166;2022-11-20T04:13:04;7.50;99.90
15630;DHT22;7914;50.842;0.166;2022-11-20T04:15:30;7.60;99.90
15630;DHT22;7914;50.842;0.166;2022-11-20T04:17:55;7.60;99.90
15630;DHT22;7914;50.842;0.166;2022-11-20T04:20:21;7.70;99.90
15630;DHT22;7914;50.842;0.166;2022-11-20T04:22:47;7.70;99.90
15630;DHT22;7914;50.842;0.166;2022-11-20T04:25:12;7.70;99.90
15630;DHT22;7914;50.842;0.166;2022-11-20T04:27:38;7.70;99.90
15630;DHT22;7914;50.842;0.166;2022-11-20T04:30:04;7.80;99.90
15630;DHT22;7914;50.842;0.166;2022-11-20T04:32:30;7.80;99.90
15630;DHT22;7914;50.842;0.166;2022-11-20T04:34:56;7.80;99.90
15630;DHT22;7914;50.842;0.166;2022-11-20T04:37:21;7.90;99.90
15630;DHT22;7914;50.842;0.166;2022-11-20T04:39:47;8.00;99.90
15630;DHT22;7914;50.842;0.166;2022-11-20T04:42:13;8.00;99.90
15630;DHT22;7914;50.842;0.166;2022-11-20T04:44:54;7.90;99.90
15630;DHT22;7914;50.842;0.166;2022-11-20T04:47:19;7.80;99.90
15630;DHT22;7914;50.842;0.166;2022-11-20T04:49:45;7.80;99.90
15630;DHT22;7914;50.842;0.166;2022-11-20T04:52:11;7.70;99.90
15630;DHT22;7914;50.842;0.166;2022-11-20T04:54:37;7.70;99.90
15630;DHT22;7914;50.842;0.166;2022-11-20T04:57:02;7.70;99.90
15630;DHT22;7914;50.842;0.166;2022-11-20T04:59:28;7.90;99.90
15630;DHT22;7914;50.842;0.166;2022-11-20T05:01:54;8.10;99.90
15630;DHT22;7914;50.842;0.166;2022-11-20T05:04:19;8.10;99.90
15630;DHT22;7914;50.842;0.166;2022-11-20T05:06:45;8.30;99.90
15630;DHT22;7914;50.842;0.166;2022-11-20T05:09:12;8.40;99.90
15630;DHT22;7914;50.842;0.166;2022-11-20T05:11:38;8.40;99.90
15630;DHT22;7914;50.842;0.166;2022-11-20T05:14:04;8.50;99.90
15630;DHT22;7914;50.842;0.166;2022-11-20T05:16:29;8.50;99.90
15630;DHT22;7914;50.842;0.166;2022-11-20T05:18:55;8.60;99.90
15630;DHT22;7914;50.842;0.166;2022-11-20T05:21:22;8.60;99.90
15630;DHT22;7914;50.842;0.166;2022-11-20T05:26:23;8.60;99.90
15630;DHT22;7914;50.842;0.166;2022-11-20T05:28:49;8.70;99.90
15630;DHT22;7914;50.842;0.166;2022-11-20T05:31:18;8.70;99.90
15630;DHT22;7914;50.842;0.166;2022-11-20T05:33:44;8.80;99.90
15630;DHT22;7914;50.842;0.166;2022-11-20T05:36:12;8.80;99.90
15630;DHT22;7914;50.842;0.166;2022-11-20T05:38:37;8.70;99.90
15630;DHT22;7914;50.842;0.166;2022-11-20T05:43:35;8.80;99.90
15630;DHT22;7914;50.842;0.166;2022-11-20T05:46:02;8.80;99.90
15630;DHT22;7914;50.842;0.166;2022-11-20T05:48:28;8.90;99.90
15630;DHT22;7914;50.842;0.166;2022-11-20T05:50:53;8.90;99.90
15630;DHT22;7914;50.842;0.166;2022-11-20T05:53:19;8.90;99.90
15630;DHT22;7914;50.842;0.166;2022-11-20T05:55:45;8.90;99.90
15630;DHT22;7914;50.842;0.166;2022-11-20T05:58:10;8.90;99.90
15630;DHT22;7914;50.842;0.166;2022-11-20T06:00:36;8.90;99.90
15630;DHT22;7914;50.842;0.166;2022-11-20T06:03:02;8.90;99.90
15630;DHT22;7914;50.842;0.166;2022-11-20T06:05:28;8.90;99.90
15630;DHT22;7914;50.842;0.166;2022-11-20T06:07:53;9.00;99.90
15630;DHT22;7914;50.842;0.166;2022-11-20T06:10:19;9.00;99.90
15630;DHT22;7914;50.842;0.166;2022-11-20T06:12:45;9.10;99.90
15630;DHT22;7914;50.842;0.166;2022-11-20T06:15:10;9.10;99.90
15630;DHT22;7914;50.842;0.166;2022-11-20T06:17:36;9.10;99.90
15630;DHT22;7914;50.842;0.166;2022-11-20T06:20:02;9.10;99.90
15630;DHT22;7914;50.842;0.166;2022-11-20T06:22:28;9.10;99.90
15630;DHT22;7914;50.842;0.166;2022-11-20T06:24:53;9.20;99.90
15630;DHT22;7914;50.842;0.166;2022-11-20T06:27:19;9.20;99.90
15630;DHT22;7914;50.842;0.166;2022-11-20T06:29:45;9.30;99.90
15630;DHT22;7914;50.842;0.166;2022-11-20T06:32:10;9.30;99.90
15630;DHT22;7914;50.842;0.166;2022-11-20T06:37:02;9.30;99.90
15630;DHT22;7914;50.842;0.166;2022-11-20T06:39:28;9.30;99.90
15630;DHT22;7914;50.842;0.166;2022-11-20T06:41:53;9.30;99.90
15630;DHT22;7914;50.842;0.166;2022-11-20T06:44:19;9.40;99.90
15630;DHT22;7914;50.842;0.166;2022-11-20T06:46:45;9.40;99.90
15630;DHT22;7914;50.842;0.166;2022-11-20T06:49:10;9.40;99.90
15630;DHT22;7914;50.842;0.166;2022-11-20T06:51:36;9.40;99.90
15630;DHT22;7914;50.842;0.166;2022-11-20T06:54:02;9.30;99.90
15630;DHT22;7914;50.842;0.166;2022-11-20T06:56:27;9.40;99.90
15630;DHT22;7914;50.842;0.166;2022-11-20T06:58:53;9.40;99.90
15630;DHT22;7914;50.842;0.166;2022-11-20T07:01:19;9.40;99.90
15630;DHT22;7914;50.842;0.166;2022-11-20T07:03:45;9.40;99.90
15630;DHT22;7914;50.842;0.166;2022-11-20T07:06:10;9.40;99.90
15630;DHT22;7914;50.842;0.166;2022-11-20T07:08:36;9.40;99.90
15630;DHT22;7914;50.842;0.166;2022-11-20T07:11:05;9.50;99.90
15630;DHT22;7914;50.842;0.166;2022-11-20T07:13:31;9.50;99.90
15630;DHT22;7914;50.842;0.166;2022-11-20T07:16:05;9.60;99.90
15630;DHT22;7914;50.842;0.166;2022-11-20T07:18:31;9.60;99.90
15630;DHT22;7914;50.842;0.166;2022-11-20T07:21:04;9.60;99.90
15630;DHT22;7914;50.842;0.166;2022-11-20T07:23:30;9.70;99.90
15630;DHT22;7914;50.842;0.166;2022-11-20T07:25:56;9.70;99.90
15630;DHT22;7914;50.842;0.166;2022-11-20T07:30:52;9.80;99.90
15630;DHT22;7914;50.842;0.166;2022-11-20T07:33:18;9.80;99.90
15630;DHT22;7914;50.842;0.166;2022-11-20T07:35:44;9.90;99.90
15630;DHT22;7914;50.842;0.166;2022-11-20T07:38:10;9.90;99.90
15630;DHT22;7914;50.842;0.166;2022-11-20T07:40:36;9.90;99.90
15630;DHT22;7914;50.842;0.166;2022-11-20T07:43:02;10.00;99.90
15630;DHT22;7914;50.842;0.166;2022-11-20T07:45:27;10.00;99.90
15630;DHT22;7914;50.842;0.166;2022-11-20T07:47:53;10.00;99.90
15630;DHT22;7914;50.842;0.166;2022-11-20T07:50:19;10.10;99.90
15630;DHT22;7914;50.842;0.166;2022-11-20T07:52:45;10.10;99.90
15630;DHT22;7914;50.842;0.166;2022-11-20T07:55:11;10.10;99.90
15630;DHT22;7914;50.842;0.166;2022-11-20T07:57:37;10.30;99.90
15630;DHT22;7914;50.842;0.166;2022-11-20T08:00:04;10.30;99.90
15630;DHT22;7914;50.842;0.166;2022-11-20T08:02:30;10.30;99.90
15630;DHT22;7914;50.842;0.166;2022-11-20T08:04:56;10.30;99.90
15630;DHT22;7914;50.842;0.166;2022-11-20T08:07:21;10.40;99.90
15630;DHT22;7914;50.842;0.166;2022-11-20T08:09:47;10.40;99.90
15630;DHT22;7914;50.842;0.166;2022-11-20T08:12:20;10.40;99.90
15630;DHT22;7914;50.842;0.166;2022-11-20T08:15:05;10.40;99.90
15630;DHT22;7914;50.842;0.166;2022-11-20T08:17:31;10.30;99.90
15630;DHT22;7914;50.842;0.166;2022-11-20T08:19:57;10.40;99.90
15630;DHT22;7914;50.842;0.166;2022-11-20T08:22:23;10.40;99.90
15630;DHT22;7914;50.842;0.166;2022-11-20T08:24:48;10.40;99.90
15630;DHT22;7914;50.842;0.166;2022-11-20T08:27:14;10.50;99.90
15630;DHT22;7914;50.842;0.166;2022-11-20T08:29:40;10.50;99.90
15630;DHT22;7914;50.842;0.166;2022-11-20T08:32:05;10.40;99.90
15630;DHT22;7914;50.842;0.166;2022-11-20T08:34:31;10.50;99.90
15630;DHT22;7914;50.842;0.166;2022-11-20T08:36:57;10.50;99.90
15630;DHT22;7914;50.842;0.166;2022-11-20T08:39:22;10.50;99.90
15630;DHT22;7914;50.842;0.166;2022-11-20T08:41:48;10.60;99.90
15630;DHT22;7914;50.842;0.166;2022-11-20T08:44:14;10.60;99.90
15630;DHT22;7914;50.842;0.166;2022-11-20T08:46:41;10.50;99.90
15630;DHT22;7914;50.842;0.166;2022-11-20T08:49:11;10.20;99.90
15630;DHT22;7914;50.842;0.166;2022-11-20T08:51:38;10.10;99.90
15630;DHT22;7914;50.842;0.166;2022-11-20T08:54:04;10.00;99.90
15630;DHT22;7914;50.842;0.166;2022-11-20T08:56:30;10.00;99.90
15630;DHT22;7914;50.842;0.166;2022-11-20T08:58:56;10.00;99.90
15630;DHT22;7914;50.842;0.166;2022-11-20T09:01:23;10.00;99.90
15630;DHT22;7914;50.842;0.166;2022-11-20T09:03:49;10.10;99.90
15630;DHT22;7914;50.842;0.166;2022-11-20T09:06:15;10.20;99.90
15630;DHT22;7914;50.842;0.166;2022-11-20T09:08:41;10.20;99.90
15630;DHT22;7914;50.842;0.166;2022-11-20T09:11:07;10.20;99.90
15630;DHT22;7914;50.842;0.166;2022-11-20T09:13:34;10.30;99.90
15630;DHT22;7914;50.842;0.166;2022-11-20T09:16:02;10.30;99.90
15630;DHT22;7914;50.842;0.166;2022-11-20T09:18:29;10.20;99.90
15630;DHT22;7914;50.842;0.166;2022-11-20T09:21:00;10.30;99.90
15630;DHT22;7914;50.842;0.166;2022-11-20T09:23:31;10.20;99.90
15630;DHT22;7914;50.842;0.166;2022-11-20T09:25:56;10.20;99.90
15630;DHT22;7914;50.842;0.166;2022-11-20T09:28:25;10.40;99.90
15630;DHT22;7914;50.842;0.166;2022-11-20T09:30:51;10.40;99.90
15630;DHT22;7914;50.842;0.166;2022-11-20T09:33:17;10.50;99.90
15630;DHT22;7914;50.842;0.166;2022-11-20T09:35:43;10.50;99.90
15630;DHT22;7914;50.842;0.166;2022-11-20T09:38:10;10.50;99.90
15630;DHT22;7914;50.842;0.166;2022-11-20T09:40:40;10.60;99.90
15630;DHT22;7914;50.842;0.166;2022-11-20T09:43:25;10.60;99.90
15630;DHT22;7914;50.842;0.166;2022-11-20T09:56:25;10.40;99.90
15630;DHT22;7914;50.842;0.166;2022-11-20T09:58:53;10.60;99.90
15630;DHT22;7914;50.842;0.166;2022-11-20T10:01:22;10.70;99.90
15630;DHT22;7914;50.842;0.166;2022-11-20T10:04:02;10.70;99.90
15630;DHT22;7914;50.842;0.166;2022-11-20T10:07:02;10.70;99.90
15630;DHT22;7914;50.842;0.166;2022-11-20T10:09:34;10.80;99.90
15630;DHT22;7914;50.842;0.166;2022-11-20T10:12:18;11.00;99.90
15630;DHT22;7914;50.842;0.166;2022-11-20T10:20:43;11.30;99.90
15630;DHT22;7914;50.842;0.166;2022-11-20T10:26:02;10.90;99.90
15630;DHT22;7914;50.842;0.166;2022-11-20T10:29:11;10.90;99.90
15630;DHT22;7914;50.842;0.166;2022-11-20T10:32:01;10.70;99.90
15630;DHT22;7914;50.842;0.166;2022-11-20T10:34:52;10.50;99.90
15630;DHT22;7914;50.842;0.166;2022-11-20T10:37:22;10.60;99.90
15630;DHT22;7914;50.842;0.166;2022-11-20T10:40:28;10.70;99.90
15630;DHT22;7914;50.842;0.166;2022-11-20T10:43:21;10.90;99.90
15630;DHT22;7914;50.842;0.166;2022-11-20T10:46:04;11.00;99.90
15630;DHT22;7914;50.842;0.166;2022-11-20T10:54:10;11.30;99.90
15630;DHT22;7914;50.842;0.166;2022-11-20T10:56:46;11.40;99.90
15630;DHT22;7914;50.842;0.166;2022-11-20T11:01:42;11.40;99.90
15630;DHT22;7914;50.842;0.166;2022-11-20T11:06:49;11.50;99.90
15630;DHT22;7914;50.842;0.166;2022-11-20T11:09:21;11.80;99.90
15630;DHT22;7914;50.842;0.166;2022-11-20T11:16:54;11.70;99.90
15630;DHT22;7914;50.842;0.166;2022-11-20T11:19:20;11.70;99.90
15630;DHT22;7914;50.842;0.166;2022-11-20T11:21:47;11.60;99.90
15630;DHT22;7914;50.842;0.166;2022-11-20T11:26:58;11.50;99.90
15630;DHT22;7914;50.842;0.166;2022-11-20T11:29:24;11.50;99.90
15630;DHT22;7914;50.842;0.166;2022-11-20T11:32:11;11.40;99.90
15630;DHT22;7914;50.842;0.166;2022-11-20T11:34:37;11.40;99.90
15630;DHT22;7914;50.842;0.166;2022-11-20T11:37:04;11.30;99.90
15630;DHT22;7914;50.842;0.166;2022-11-20T11:39:32;11.20;99.90
15630;DHT22;7914;50.842;0.166;2022-11-20T11:42:00;11.10;99.90
15630;DHT22;7914;50.842;0.166;2022-11-20T11:44:33;11.00;99.90
15630;DHT22;7914;50.842;0.166;2022-11-20T11:47:24;10.90;99.90
15630;DHT22;7914;50.842;0.166;2022-11-20T11:53:09;10.70;99.90
15630;DHT22;7914;50.842;0.166;2022-11-20T11:56:03;10.60;99.90
15630;DHT22;7914;50.842;0.166;2022-11-20T11:58:47;10.70;99.90
15630;DHT22;7914;50.842;0.166;2022-11-20T12:03:47;10.90;99.90
15630;DHT22;7914;50.842;0.166;2022-11-20T12:06:16;11.00;99.90
15630;DHT22;7914;50.842;0.166;2022-11-20T12:08:53;11.00;99.90
15630;DHT22;7914;50.842;0.166;2022-11-20T12:17:03;11.10;99.90
15630;DHT22;7914;50.842;0.166;2022-11-20T12:19:31;11.00;99.90
15630;DHT22;7914;50.842;0.166;2022-11-20T12:41:46;10.70;99.90
15630;DHT22;7914;50.842;0.166;2022-11-20T12:47:51;10.70;99.90
15630;DHT22;7914;50.842;0.166;2022-11-20T12:53:34;10.70;99.90
15630;DHT22;7914;50.842;0.166;2022-11-20T13:02:24;10.80;99.90
15630;DHT22;7914;50.842;0.166;2022-11-20T13:05:05;10.80;99.90
15630;DHT22;7914;50.842;0.166;2022-11-20T13:07:36;10.80;74.40
15630;DHT22;7914;50.842;0.166;2022-11-20T13:10:03;10.80;1.00
15630;DHT22;7914;50.842;0.166;2022-11-20T13:15:35;10.80;1.00
15630;DHT22;7914;50.842;0.166;2022-11-20T13:17:58;10.80;1.00
15630;DHT22;7914;50.842;0.166;2022-11-20T13:20:24;10.80;1.00
15630;DHT22;7914;50.842;0.166;2022-11-20T13:22:54;10.80;1.00
15630;DHT22;7914;50.842;0.166;2022-11-20T13:25:35;10.70;1.00
15630;DHT22;7914;50.842;0.166;2022-11-20T13:30:52;10.80;1.00
15630;DHT22;7914;50.842;0.166;2022-11-20T13:33:34;10.70;1.00
15630;DHT22;7914;50.842;0.166;2022-11-20T13:36:21;10.70;1.00
15630;DHT22;7914;50.842;0.166;2022-11-20T13:38:49;10.70;1.00
15630;DHT22;7914;50.842;0.166;2022-11-20T13:41:31;10.70;1.00
15630;DHT22;7914;50.842;0.166;2022-11-20T13:44:13;10.70;1.00
15630;DHT22;7914;50.842;0.166;2022-11-20T13:46:45;10.70;1.00
15630;DHT22;7914;50.842;0.166;2022-11-20T13:49:20;10.80;1.00
15630;DHT22;7914;50.842;0.166;2022-11-20T13:51:50;10.70;1.00
15630;DHT22;7914;50.842;0.166;2022-11-20T14:00:20;10.50;1.00
15630;DHT22;7914;50.842;0.166;2022-11-20T14:06:02;10.40;1.00
15630;DHT22;7914;50.842;0.166;2022-11-20T14:08:42;10.30;1.00
15630;DHT22;7914;50.842;0.166;2022-11-20T14:13:59;10.30;1.00
15630;DHT22;7914;50.842;0.166;2022-11-20T14:16:28;10.30;8.30
15630;DHT22;7914;50.842;0.166;2022-11-20T14:18:55;10.40;13.30
15630;DHT22;7914;50.842;0.166;2022-11-20T14:21:25;10.40;27.70
15630;DHT22;7914;50.842;0.166;2022-11-20T14:24:10;10.30;29.10
15630;DHT22;7914;50.842;0.166;2022-11-20T14:26:38;10.30;26.00
15630;DHT22;7914;50.842;0.166;2022-11-20T14:29:21;10.20;46.40
15630;DHT22;7914;50.842;0.166;2022-11-20T14:31:52;10.20;87.70
15630;DHT22;7914;50.842;0.166;2022-11-20T14:34:22;10.10;89.30
15630;DHT22;7914;50.842;0.166;2022-11-20T14:36:51;10.00;99.90
15630;DHT22;7914;50.842;0.166;2022-11-20T14:39:25;10.00;67.70
15630;DHT22;7914;50.842;0.166;2022-11-20T14:41:52;10.00;99.00
15630;DHT22;7914;50.842;0.166;2022-11-20T14:44:21;10.10;99.90
15630;DHT22;7914;50.842;0.166;2022-11-20T14:46:49;10.10;99.90
15630;DHT22;7914;50.842;0.166;2022-11-20T14:49:16;10.20;99.90
15630;DHT22;7914;50.842;0.166;2022-11-20T14:51:41;10.30;99.90
15630;DHT22;7914;50.842;0.166;2022-11-20T14:54:20;10.40;99.30
15630;DHT22;7914;50.842;0.166;2022-11-20T14:56:58;10.40;95.20
15630;DHT22;7914;50.842;0.166;2022-11-20T14:59:25;10.40;90.00
15630;DHT22;7914;50.842;0.166;2022-11-20T15:02:11;10.40;90.40
15630;DHT22;7914;50.842;0.166;2022-11-20T15:04:47;10.30;99.90
15630;DHT22;7914;50.842;0.166;2022-11-20T15:07:27;10.30;99.90
15630;DHT22;7914;50.842;0.166;2022-11-20T15:10:11;10.40;99.90
15630;DHT22;7914;50.842;0.166;2022-11-20T15:12:45;10.30;99.90
15630;DHT22;7914;50.842;0.166;2022-11-20T15:15:12;10.30;99.90
15630;DHT22;7914;50.842;0.166;2022-11-20T15:17:40;10.30;99.90
15630;DHT22;7914;50.842;0.166;2022-11-20T15:20:14;10.30;99.90
15630;DHT22;7914;50.842;0.166;2022-11-20T15:22:40;10.30;99.90
15630;DHT22;7914;50.842;0.166;2022-11-20T15:25:14;10.30;99.90
15630;DHT22;7914;50.842;0.166;2022-11-20T15:27:41;10.10;99.90
15630;DHT22;7914;50.842;0.166;2022-11-20T15:30:18;10.10;99.90
15630;DHT22;7914;50.842;0.166;2022-11-20T15:32:45;10.10;99.90
15630;DHT22;7914;50.842;0.166;2022-11-20T15:35:12;10.10;99.90
15630;DHT22;7914;50.842;0.166;2022-11-20T15:37:38;10.10;99.90
15630;DHT22;7914;50.842;0.166;2022-11-20T15:40:05;10.10;99.90
15630;DHT22;7914;50.842;0.166;2022-11-20T15:42:32;10.00;99.90
15630;DHT22;7914;50.842;0.166;2022-11-20T15:44:57;9.90;99.90
15630;DHT22;7914;50.842;0.166;2022-11-20T15:47:34;9.90;99.90
15630;DHT22;7914;50.842;0.166;2022-11-20T15:50:01;9.80;99.90
15630;DHT22;7914;50.842;0.166;2022-11-20T15:52:26;9.70;99.90
15630;DHT22;7914;50.842;0.166;2022-11-20T15:54:52;9.60;99.90
15630;DHT22;7914;50.842;0.166;2022-11-20T15:57:18;9.60;99.90
15630;DHT22;7914;50.842;0.166;2022-11-20T15:59:44;9.50;99.90
15630;DHT22;7914;50.842;0.166;2022-11-20T16:02:14;9.50;99.90
15630;DHT22;7914;50.842;0.166;2022-11-20T16:04:40;9.50;99.90
15630;DHT22;7914;50.842;0.166;2022-11-20T16:07:06;9.50;99.90
15630;DHT22;7914;50.842;0.166;2022-11-20T16:09:32;9.40;99.90
15630;DHT22;7914;50.842;0.166;2022-11-20T16:11:58;9.40;99.90
15630;DHT22;7914;50.842;0.166;2022-11-20T16:14:25;9.30;99.90
15630;DHT22;7914;50.842;0.166;2022-11-20T16:17:10;9.30;99.90
15630;DHT22;7914;50.842;0.166;2022-11-20T16:19:35;9.30;99.90
15630;DHT22;7914;50.842;0.166;2022-11-20T16:22:01;9.30;99.90
15630;DHT22;7914;50.842;0.166;2022-11-20T16:24:27;9.20;99.90
15630;DHT22;7914;50.842;0.166;2022-11-20T16:26:54;9.10;99.90
15630;DHT22;7914;50.842;0.166;2022-11-20T16:29:19;9.10;99.90
15630;DHT22;7914;50.842;0.166;2022-11-20T16:31:45;9.10;99.90
15630;DHT22;7914;50.842;0.166;2022-11-20T16:34:11;9.10;99.90
15630;DHT22;7914;50.842;0.166;2022-11-20T16:36:39;9.10;99.90
15630;DHT22;7914;50.842;0.166;2022-11-20T16:39:06;9.20;99.90
15630;DHT22;7914;50.842;0.166;2022-11-20T16:41:33;9.30;99.90
15630;DHT22;7914;50.842;0.166;2022-11-20T16:44:01;9.50;99.90
15630;DHT22;7914;50.842;0.166;2022-11-20T16:46:29;9.70;99.90
15630;DHT22;7914;50.842;0.166;2022-11-20T16:49:03;9.80;99.90
15630;DHT22;7914;50.842;0.166;2022-11-20T16:51:33;9.90;99.90
15630;DHT22;7914;50.842;0.166;2022-11-20T16:54:04;9.90;99.90
15630;DHT22;7914;50.842;0.166;2022-11-20T16:56:30;9.90;99.90
15630;DHT22;7914;50.842;0.166;2022-11-20T16:58:57;9.90;99.90
15630;DHT22;7914;50.842;0.166;2022-11-20T17:01:24;9.80;99.90
15630;DHT22;7914;50.842;0.166;2022-11-20T17:04:02;9.60;99.90
15630;DHT22;7914;50.842;0.166;2022-11-20T17:06:32;9.50;99.90
15630;DHT22;7914;50.842;0.166;2022-11-20T17:08:58;9.40;99.90
15630;DHT22;7914;50.842;0.166;2022-11-20T17:11:24;9.20;99.90
15630;DHT22;7914;50.842;0.166;2022-11-20T17:13:51;9.10;99.90
15630;DHT22;7914;50.842;0.166;2022-11-20T17:16:22;8.90;99.90
15630;DHT22;7914;50.842;0.166;2022-11-20T17:18:48;8.80;99.90
15630;DHT22;7914;50.842;0.166;2022-11-20T17:21:17;8.70;99.90
15630;DHT22;7914;50.842;0.166;2022-11-20T17:23:44;8.70;99.90
15630;DHT22;7914;50.842;0.166;2022-11-20T17:28:39;8.50;99.90
15630;DHT22;7914;50.842;0.166;2022-11-20T17:31:11;8.50;99.90
15630;DHT22;7914;50.842;0.166;2022-11-20T17:33:39;8.40;99.90
15630;DHT22;7914;50.842;0.166;2022-11-20T17:36:06;8.50;99.90
15630;DHT22;7914;50.842;0.166;2022-11-20T17:38:33;8.50;99.90
15630;DHT22;7914;50.842;0.166;2022-11-20T17:41:13;8.50;99.90
15630;DHT22;7914;50.842;0.166;2022-11-20T17:43:40;8.70;99.90
15630;DHT22;7914;50.842;0.166;2022-11-20T17:46:09;8.70;99.90
15630;DHT22;7914;50.842;0.166;2022-11-20T17:48:35;8.80;99.90
15630;DHT22;7914;50.842;0.166;2022-11-20T17:51:04;8.90;99.90
15630;DHT22;7914;50.842;0.166;2022-11-20T17:53:33;8.90;99.90
15630;DHT22;7914;50.842;0.166;2022-11-20T17:58:44;9.10;99.90
15630;DHT22;7914;50.842;0.166;2022-11-20T18:01:10;9.10;99.90
15630;DHT22;7914;50.842;0.166;2022-11-20T18:03:36;9.10;99.90
15630;DHT22;7914;50.842;0.166;2022-11-20T18:06:20;9.10;99.90